createdAt,value
2022-07-29T00:00:26.167Z,1013.28
2022-07-29T00:01:26.151Z,1013.30
2022-07-29T00:02:26.188Z,1013.27
2022-07-29T00:03:26.293Z,1013.28
2022-07-29T00:04:26.187Z,1013.29
2022-07-29T00:05:26.172Z,1013.29
2022-07-29T00:06:26.065Z,1013.23
2022-07-29T00:07:26.086Z,1013.23
2022-07-29T00:08:26.074Z,1013.18
2022-07-29T00:09:26.065Z,1013.18
2022-07-29T00:10:26.159Z,1013.12
2022-07-29T00:11:26.045Z,1013.11
2022-07-29T00:12:26.893Z,1013.12
2022-07-29T00:13:32.195Z,1013.11
2022-07-29T00:14:27.145Z,1013.11
2022-07-29T00:15:25.942Z,1013.09
2022-07-29T00:16:26.021Z,1013.10
2022-07-29T00:17:25.966Z,1013.09
2022-07-29T00:18:25.920Z,1013.07
2022-07-29T00:19:26.293Z,1013.02
2022-07-29T00:20:25.887Z,1013.05
2022-07-29T00:21:25.894Z,1013.00
2022-07-29T00:22:25.908Z,1012.93
2022-07-29T00:23:25.837Z,1012.95
2022-07-29T00:24:25.830Z,1012.91
2022-07-29T00:25:25.851Z,1012.88
2022-07-29T00:26:25.816Z,1012.88
2022-07-29T00:27:25.780Z,1012.90
2022-07-29T00:28:25.804Z,1012.89
2022-07-29T00:29:34.668Z,1012.88
2022-07-29T00:30:26.813Z,1012.91
2022-07-29T00:31:25.844Z,1012.94
2022-07-29T00:32:25.741Z,1012.88
2022-07-29T00:33:25.721Z,1012.88
2022-07-29T00:34:25.694Z,1012.90
2022-07-29T00:35:25.739Z,1012.86
2022-07-29T00:36:25.697Z,1012.88
2022-07-29T00:37:25.697Z,1012.91
2022-07-29T00:38:25.644Z,1012.87
2022-07-29T00:39:25.652Z,1012.87
2022-07-29T00:40:25.669Z,1012.85
2022-07-29T00:41:25.612Z,1012.84
2022-07-29T00:42:25.585Z,1012.81
2022-07-29T00:43:25.612Z,1012.85
2022-07-29T00:44:25.564Z,1012.84
2022-07-29T00:45:25.554Z,1012.81
2022-07-29T00:46:25.676Z,1012.77
2022-07-29T00:47:25.611Z,1012.83
2022-07-29T00:48:25.706Z,1012.78
2022-07-29T00:49:25.547Z,1012.77
2022-07-29T00:50:25.535Z,1012.75
2022-07-29T00:51:25.516Z,1012.76
2022-07-29T00:52:25.457Z,1012.74
2022-07-29T00:53:25.446Z,1012.77
2022-07-29T00:54:25.460Z,1012.72
2022-07-29T00:55:25.448Z,1012.72
2022-07-29T00:56:25.464Z,1012.71
2022-07-29T00:57:25.390Z,1012.69
2022-07-29T00:58:25.378Z,1012.70
2022-07-29T00:59:25.478Z,1012.69
2022-07-29T01:00:26.428Z,1012.66
2022-07-29T01:01:25.504Z,1012.67
2022-07-29T01:02:25.455Z,1012.69
2022-07-29T01:03:25.308Z,1012.75
2022-07-29T01:04:25.321Z,1012.69
2022-07-29T01:05:25.320Z,1012.71
2022-07-29T01:06:26.321Z,1012.70
2022-07-29T01:07:25.257Z,1012.68
2022-07-29T01:08:25.250Z,1012.66
2022-07-29T01:09:42.964Z,1012.67
2022-07-29T01:10:26.308Z,1012.65
2022-07-29T01:11:25.224Z,1012.68
2022-07-29T01:12:25.197Z,1012.66
2022-07-29T01:13:25.361Z,1012.60
2022-07-29T01:14:25.277Z,1012.63
2022-07-29T01:15:25.205Z,1012.62
2022-07-29T01:16:25.272Z,1012.62
2022-07-29T01:17:25.170Z,1012.60
2022-07-29T01:18:25.142Z,1012.57
2022-07-29T01:19:25.103Z,1012.62
2022-07-29T01:20:25.113Z,1012.57
2022-07-29T01:21:26.132Z,1012.55
2022-07-29T01:22:25.120Z,1012.55
2022-07-29T01:23:25.079Z,1012.55
2022-07-29T01:24:25.060Z,1012.53
2022-07-29T01:25:26.100Z,1012.52
2022-07-29T01:26:26.006Z,1012.52
2022-07-29T01:27:25.050Z,1012.49
2022-07-29T01:28:25.035Z,1012.50
2022-07-29T01:29:25.012Z,1012.48
2022-07-29T01:30:24.977Z,1012.42
2022-07-29T01:31:26.508Z,1012.46
2022-07-29T01:32:28.932Z,1012.45
2022-07-29T01:33:24.963Z,1012.46
2022-07-29T01:34:25.009Z,1012.40
2022-07-29T01:35:26.364Z,1012.44
2022-07-29T01:36:24.880Z,1012.39
2022-07-29T01:37:24.925Z,1012.46
2022-07-29T01:38:24.907Z,1012.41
2022-07-29T01:39:25.776Z,1012.41
2022-07-29T01:40:24.836Z,1012.45
2022-07-29T01:41:26.098Z,1012.38
2022-07-29T01:42:25.068Z,1012.37
2022-07-29T01:43:24.864Z,1012.34
2022-07-29T01:44:24.764Z,1012.38
2022-07-29T01:45:24.756Z,1012.33
2022-07-29T01:46:24.779Z,1012.29
2022-07-29T01:47:24.815Z,1012.28
2022-07-29T01:48:24.756Z,1012.27
2022-07-29T01:49:24.802Z,1012.26
2022-07-29T01:50:24.735Z,1012.27
2022-07-29T01:51:24.676Z,1012.25
2022-07-29T01:52:24.679Z,1012.29
2022-07-29T01:53:24.688Z,1012.27
2022-07-29T01:54:24.739Z,1012.29
2022-07-29T01:55:24.667Z,1012.27
2022-07-29T01:56:24.602Z,1012.28
2022-07-29T01:57:24.596Z,1012.24
2022-07-29T01:58:24.595Z,1012.24
2022-07-29T01:59:24.621Z,1012.23
2022-07-29T02:00:24.648Z,1012.21
2022-07-29T02:01:24.745Z,1012.19
2022-07-29T02:02:24.541Z,1012.20
2022-07-29T02:03:24.665Z,1012.20
2022-07-29T02:04:29.537Z,1012.18
2022-07-29T02:05:25.655Z,1012.22
2022-07-29T02:06:24.549Z,1012.18
2022-07-29T02:07:24.502Z,1012.17
2022-07-29T02:08:24.450Z,1012.15
2022-07-29T02:09:24.510Z,1012.18
2022-07-29T02:10:25.718Z,1012.10
2022-07-29T02:11:24.435Z,1012.10
2022-07-29T02:12:24.407Z,1012.06
2022-07-29T02:13:24.389Z,1012.08
2022-07-29T02:14:24.402Z,1012.09
2022-07-29T02:15:24.537Z,1012.09
2022-07-29T02:16:24.684Z,1012.09
2022-07-29T02:17:24.345Z,1012.08
2022-07-29T02:18:24.335Z,1012.07
2022-07-29T02:19:24.351Z,1012.05
2022-07-29T02:20:24.323Z,1012.09
2022-07-29T02:21:24.915Z,1012.05
2022-07-29T02:22:24.893Z,1012.05
2022-07-29T02:23:24.288Z,1012.06
2022-07-29T02:24:24.343Z,1012.09
2022-07-29T02:25:24.230Z,1012.10
2022-07-29T02:26:24.260Z,1012.14
2022-07-29T02:27:24.288Z,1012.13
2022-07-29T02:28:24.196Z,1012.12
2022-07-29T02:29:24.269Z,1012.10
2022-07-29T02:30:24.186Z,1012.09
2022-07-29T02:31:24.301Z,1012.12
2022-07-29T02:32:24.155Z,1012.07
2022-07-29T02:33:24.133Z,1012.08
2022-07-29T02:34:24.167Z,1012.10
2022-07-29T02:35:24.098Z,1012.07
2022-07-29T02:36:24.130Z,1012.08
2022-07-29T02:37:24.088Z,1012.09
2022-07-29T02:38:24.075Z,1012.13
2022-07-29T02:39:24.049Z,1012.11
2022-07-29T02:40:24.029Z,1012.11
2022-07-29T02:41:24.097Z,1012.12
2022-07-29T02:42:24.049Z,1012.07
2022-07-29T02:43:25.519Z,1012.11
2022-07-29T02:44:23.980Z,1012.10
2022-07-29T02:45:23.997Z,1012.09
2022-07-29T02:46:29.305Z,1012.09
2022-07-29T02:47:24.962Z,1012.09
2022-07-29T02:48:23.924Z,1012.12
2022-07-29T02:49:23.994Z,1012.10
2022-07-29T02:50:23.913Z,1012.10
2022-07-29T02:51:43.940Z,1012.08
2022-07-29T02:52:24.913Z,1012.05
2022-07-29T02:53:23.870Z,1012.03
2022-07-29T02:54:23.872Z,1012.01
2022-07-29T02:55:23.904Z,1012.00
2022-07-29T02:56:23.874Z,1011.93
2022-07-29T02:57:23.821Z,1011.92
2022-07-29T02:58:23.827Z,1011.90
2022-07-29T02:59:23.786Z,1011.91
2022-07-29T03:00:23.835Z,1011.89
2022-07-29T03:01:23.841Z,1011.87
2022-07-29T03:02:23.818Z,1011.84
2022-07-29T03:03:23.747Z,1011.90
2022-07-29T03:04:24.037Z,1011.91
2022-07-29T03:05:23.738Z,1011.90
2022-07-29T03:06:37.363Z,1011.85
2022-07-29T03:07:24.737Z,1011.87
2022-07-29T03:08:23.733Z,1011.88
2022-07-29T03:09:23.697Z,1011.91
2022-07-29T03:10:23.658Z,1011.90
2022-07-29T03:11:46.209Z,1011.88
2022-07-29T03:12:24.684Z,1011.85
2022-07-29T03:13:23.597Z,1011.82
2022-07-29T03:14:23.606Z,1011.80
2022-07-29T03:15:24.024Z,1011.79
2022-07-29T03:16:23.644Z,1011.83
2022-07-29T03:17:23.586Z,1011.87
2022-07-29T03:18:23.547Z,1011.83
2022-07-29T03:19:23.518Z,1011.85
2022-07-29T03:20:23.511Z,1011.88
2022-07-29T03:21:23.488Z,1011.84
2022-07-29T03:22:23.543Z,1011.89
2022-07-29T03:23:24.503Z,1011.87
2022-07-29T03:24:23.579Z,1011.84
2022-07-29T03:25:23.509Z,1011.87
2022-07-29T03:26:23.457Z,1011.87
2022-07-29T03:27:23.469Z,1011.87
2022-07-29T03:28:23.421Z,1011.92
2022-07-29T03:29:23.395Z,1011.93
2022-07-29T03:30:23.409Z,1011.90
2022-07-29T03:31:23.469Z,1011.90
2022-07-29T03:32:25.191Z,1011.88
2022-07-29T03:33:23.352Z,1011.88
2022-07-29T03:34:23.497Z,1011.89
2022-07-29T03:35:23.367Z,1011.89
2022-07-29T03:36:23.335Z,1011.83
2022-07-29T03:37:23.287Z,1011.83
2022-07-29T03:38:23.348Z,1011.86
2022-07-29T03:39:23.257Z,1011.81
2022-07-29T03:40:23.246Z,1011.80
2022-07-29T03:41:23.224Z,1011.81
2022-07-29T03:42:23.237Z,1011.80
2022-07-29T03:43:23.278Z,1011.82
2022-07-29T03:44:23.618Z,1011.76
2022-07-29T03:45:25.148Z,1011.78
2022-07-29T03:46:23.462Z,1011.81
2022-07-29T03:47:23.158Z,1011.74
2022-07-29T03:48:24.185Z,1011.73
2022-07-29T03:49:23.191Z,1011.75
2022-07-29T03:50:23.115Z,1011.69
2022-07-29T03:51:33.162Z,1011.72
2022-07-29T03:52:24.089Z,1011.70
2022-07-29T03:53:23.158Z,1011.70
2022-07-29T03:54:23.062Z,1011.68
2022-07-29T03:55:23.048Z,1011.68
2022-07-29T03:56:23.077Z,1011.68
2022-07-29T03:57:23.069Z,1011.71
2022-07-29T03:58:23.381Z,1011.74
2022-07-29T03:59:23.062Z,1011.71
2022-07-29T04:00:23.005Z,1011.74
2022-07-29T04:01:23.041Z,1011.70
2022-07-29T04:02:25.290Z,1011.75
2022-07-29T04:03:23.991Z,1011.70
2022-07-29T04:04:22.988Z,1011.76
2022-07-29T04:05:22.930Z,1011.75
2022-07-29T04:06:22.898Z,1011.75
2022-07-29T04:07:22.972Z,1011.74
2022-07-29T04:08:22.874Z,1011.73
2022-07-29T04:09:22.938Z,1011.71
2022-07-29T04:10:25.241Z,1011.72
2022-07-29T04:11:24.683Z,1011.75
2022-07-29T04:12:22.819Z,1011.75
2022-07-29T04:13:22.899Z,1011.75
2022-07-29T04:14:22.860Z,1011.76
2022-07-29T04:15:22.802Z,1011.78
2022-07-29T04:16:22.918Z,1011.82
2022-07-29T04:17:22.814Z,1011.77
2022-07-29T04:18:22.740Z,1011.80
2022-07-29T04:19:22.726Z,1011.83
2022-07-29T04:20:22.907Z,1011.83
2022-07-29T04:21:22.713Z,1011.85
2022-07-29T04:22:22.783Z,1011.90
2022-07-29T04:23:22.745Z,1011.95
2022-07-29T04:24:23.761Z,1011.89
2022-07-29T04:25:22.717Z,1011.93
2022-07-29T04:26:22.654Z,1011.95
2022-07-29T04:27:22.644Z,1011.92
2022-07-29T04:28:22.623Z,1011.98
2022-07-29T04:29:22.676Z,1011.99
2022-07-29T04:30:22.651Z,1011.95
2022-07-29T04:31:25.889Z,1011.98
2022-07-29T04:32:22.570Z,1012.02
2022-07-29T04:33:22.549Z,1012.05
2022-07-29T04:34:22.545Z,1012.02
2022-07-29T04:35:23.520Z,1012.03
2022-07-29T04:36:29.097Z,1012.04
2022-07-29T04:37:23.504Z,1012.00
2022-07-29T04:38:22.497Z,1012.07
2022-07-29T04:39:23.328Z,1012.05
2022-07-29T04:40:22.524Z,1012.05
2022-07-29T04:41:22.472Z,1012.02
2022-07-29T04:42:27.503Z,1012.03
2022-07-29T04:43:23.515Z,1012.04
2022-07-29T04:44:22.480Z,1012.05
2022-07-29T04:45:23.419Z,1012.03
2022-07-29T04:46:22.534Z,1012.02
2022-07-29T04:47:22.371Z,1012.06
2022-07-29T04:48:28.216Z,1012.02
2022-07-29T04:49:23.575Z,1012.05
2022-07-29T04:50:22.347Z,1011.98
2022-07-29T04:51:22.363Z,1012.00
2022-07-29T04:52:22.309Z,1011.98
2022-07-29T04:53:22.274Z,1011.96
2022-07-29T04:54:22.355Z,1011.97
2022-07-29T04:55:22.252Z,1011.97
2022-07-29T04:56:22.258Z,1011.95
2022-07-29T04:57:22.388Z,1011.94
2022-07-29T04:58:22.208Z,1012.00
2022-07-29T04:59:22.281Z,1011.97
2022-07-29T05:00:22.194Z,1011.96
2022-07-29T05:01:23.319Z,1011.95
2022-07-29T05:02:22.302Z,1011.95
2022-07-29T05:03:22.218Z,1011.96
2022-07-29T05:04:22.170Z,1011.96
2022-07-29T05:05:22.196Z,1011.96
2022-07-29T05:06:22.143Z,1011.94
2022-07-29T05:07:22.092Z,1011.96
2022-07-29T05:08:22.383Z,1011.95
2022-07-29T05:09:22.077Z,1011.95
2022-07-29T05:10:22.086Z,1011.96
2022-07-29T05:11:24.966Z,1011.98
2022-07-29T05:12:23.012Z,1011.96
2022-07-29T05:13:22.019Z,1011.99
2022-07-29T05:14:22.127Z,1012.00
2022-07-29T05:15:22.056Z,1011.95
2022-07-29T05:16:22.050Z,1011.98
2022-07-29T05:17:21.976Z,1012.01
2022-07-29T05:18:21.975Z,1011.97
2022-07-29T05:19:21.980Z,1012.00
2022-07-29T05:20:21.928Z,1012.01
2022-07-29T05:21:21.906Z,1011.97
2022-07-29T05:22:22.029Z,1011.93
2022-07-29T05:23:21.889Z,1011.94
2022-07-29T05:24:21.868Z,1011.96
2022-07-29T05:25:21.989Z,1011.97
2022-07-29T05:26:21.919Z,1011.95
2022-07-29T05:27:22.811Z,1011.96
2022-07-29T05:28:21.872Z,1011.99
2022-07-29T05:29:42.922Z,1011.97
2022-07-29T05:30:22.832Z,1011.93
2022-07-29T05:31:21.840Z,1011.96
2022-07-29T05:32:21.795Z,1011.90
2022-07-29T05:33:35.002Z,1011.90
2022-07-29T05:34:22.736Z,1011.88
2022-07-29T05:35:21.727Z,1011.83
2022-07-29T05:36:21.742Z,1011.81
2022-07-29T05:37:21.712Z,1011.81
2022-07-29T05:38:21.778Z,1011.80
2022-07-29T05:39:21.671Z,1011.85
2022-07-29T05:40:22.350Z,1011.88
2022-07-29T05:41:21.749Z,1011.85
2022-07-29T05:42:21.635Z,1011.80
2022-07-29T05:43:21.605Z,1011.84
2022-07-29T05:44:21.624Z,1011.84
2022-07-29T05:45:21.593Z,1011.83
2022-07-29T05:46:21.745Z,1011.88
2022-07-29T05:47:21.563Z,1011.86
2022-07-29T05:48:21.546Z,1011.89
2022-07-29T05:49:23.142Z,1011.87
2022-07-29T05:50:22.544Z,1011.87
2022-07-29T05:51:21.508Z,1011.87
2022-07-29T05:52:21.533Z,1011.88
2022-07-29T05:53:22.375Z,1011.89
2022-07-29T05:54:21.554Z,1011.92
2022-07-29T05:55:21.521Z,1011.91
2022-07-29T05:56:21.446Z,1011.93
2022-07-29T05:57:21.432Z,1011.88
2022-07-29T05:58:21.414Z,1011.92
2022-07-29T05:59:21.487Z,1011.91
2022-07-29T06:00:21.406Z,1011.91
2022-07-29T06:01:21.515Z,1011.90
2022-07-29T06:02:21.366Z,1011.94
2022-07-29T06:03:21.371Z,1011.97
2022-07-29T06:04:21.533Z,1012.03
2022-07-29T06:05:21.414Z,1012.05
2022-07-29T06:06:21.367Z,1012.08
2022-07-29T06:07:21.320Z,1012.07
2022-07-29T06:08:21.335Z,1012.09
2022-07-29T06:09:21.372Z,1012.08
2022-07-29T06:10:23.935Z,1012.05
2022-07-29T06:11:22.258Z,1012.08
2022-07-29T06:12:21.373Z,1012.11
2022-07-29T06:13:21.359Z,1012.05
2022-07-29T06:14:21.214Z,1012.09
2022-07-29T06:15:21.214Z,1012.10
2022-07-29T06:16:29.910Z,1012.07
2022-07-29T06:17:22.203Z,1012.13
2022-07-29T06:18:21.191Z,1012.08
2022-07-29T06:19:21.132Z,1012.11
2022-07-29T06:20:26.995Z,1012.10
2022-07-29T06:21:22.171Z,1012.12
2022-07-29T06:22:21.157Z,1012.15
2022-07-29T06:23:21.084Z,1012.20
2022-07-29T06:24:21.166Z,1012.20
2022-07-29T06:25:21.093Z,1012.19
2022-07-29T06:26:30.320Z,1012.17
2022-07-29T06:27:22.106Z,1012.13
2022-07-29T06:28:21.126Z,1012.15
2022-07-29T06:29:21.037Z,1012.12
2022-07-29T06:30:21.050Z,1012.08
2022-07-29T06:31:21.757Z,1012.10
2022-07-29T06:32:23.002Z,1012.10
2022-07-29T06:33:21.961Z,1012.08
2022-07-29T06:34:20.984Z,1012.07
2022-07-29T06:35:38.765Z,1012.08
2022-07-29T06:36:22.961Z,1012.07
2022-07-29T06:37:20.897Z,1012.05
2022-07-29T06:38:30.780Z,1012.05
2022-07-29T06:39:22.151Z,1012.03
2022-07-29T06:40:20.861Z,1012.03
2022-07-29T06:41:20.900Z,1012.03
2022-07-29T06:42:21.007Z,1012.02
2022-07-29T06:43:20.833Z,1012.02
2022-07-29T06:44:20.812Z,1012.03
2022-07-29T06:45:20.860Z,1012.02
2022-07-29T06:46:21.217Z,1012.02
2022-07-29T06:47:20.903Z,1012.04
2022-07-29T06:48:20.831Z,1012.00
2022-07-29T06:49:20.901Z,1011.98
2022-07-29T06:50:20.764Z,1012.00
2022-07-29T06:51:22.400Z,1011.94
2022-07-29T06:52:20.773Z,1011.96
2022-07-29T06:53:20.832Z,1011.96
2022-07-29T06:54:20.676Z,1012.00
2022-07-29T06:55:25.003Z,1012.02
2022-07-29T06:56:21.452Z,1012.06
2022-07-29T06:57:20.683Z,1012.05
2022-07-29T06:58:20.713Z,1012.03
2022-07-29T06:59:26.213Z,1012.00
2022-07-29T07:00:21.741Z,1012.04
2022-07-29T07:01:20.641Z,1011.98
2022-07-29T07:02:20.613Z,1012.03
2022-07-29T07:03:20.617Z,1012.01
2022-07-29T07:04:21.193Z,1011.96
2022-07-29T07:05:20.526Z,1011.97
2022-07-29T07:06:20.518Z,1011.97
2022-07-29T07:07:20.553Z,1011.93
2022-07-29T07:08:20.512Z,1011.92
2022-07-29T07:09:20.591Z,1011.89
2022-07-29T07:10:20.479Z,1011.89
2022-07-29T07:11:20.461Z,1011.89
2022-07-29T07:12:20.444Z,1011.89
2022-07-29T07:13:20.431Z,1011.84
2022-07-29T07:14:21.066Z,1011.86
2022-07-29T07:15:20.440Z,1011.83
2022-07-29T07:16:20.421Z,1011.85
2022-07-29T07:17:20.408Z,1011.86
2022-07-29T07:18:20.360Z,1011.85
2022-07-29T07:19:20.402Z,1011.84
2022-07-29T07:20:20.370Z,1011.86
2022-07-29T07:21:21.131Z,1011.93
2022-07-29T07:22:20.322Z,1011.90
2022-07-29T07:23:20.499Z,1011.89
2022-07-29T07:24:20.351Z,1011.86
2022-07-29T07:25:20.271Z,1011.86
2022-07-29T07:26:20.301Z,1011.86
2022-07-29T07:27:20.309Z,1011.82
2022-07-29T07:28:24.570Z,1011.88
2022-07-29T07:29:20.265Z,1011.86
2022-07-29T07:30:20.276Z,1011.82
2022-07-29T07:31:20.245Z,1011.87
2022-07-29T07:32:20.209Z,1011.84
2022-07-29T07:33:20.188Z,1011.84
2022-07-29T07:34:28.280Z,1011.84
2022-07-29T07:35:21.156Z,1011.84
2022-07-29T07:36:20.128Z,1011.87
2022-07-29T07:37:20.266Z,1011.84
2022-07-29T07:38:20.138Z,1011.83
2022-07-29T07:39:20.138Z,1011.87
2022-07-29T07:40:20.086Z,1011.84
2022-07-29T07:41:20.066Z,1011.83
2022-07-29T07:42:20.056Z,1011.84
2022-07-29T07:43:20.119Z,1011.86
2022-07-29T07:44:20.390Z,1011.89
2022-07-29T07:45:20.133Z,1011.88
2022-07-29T07:46:20.208Z,1011.90
2022-07-29T07:47:19.999Z,1011.91
2022-07-29T07:48:19.979Z,1011.90
2022-07-29T07:49:21.905Z,1011.93
2022-07-29T07:50:20.311Z,1011.89
2022-07-29T07:51:19.993Z,1011.92
2022-07-29T07:52:19.926Z,1011.95
2022-07-29T07:53:19.962Z,1011.92
2022-07-29T07:54:21.125Z,1011.91
2022-07-29T07:55:19.907Z,1011.84
2022-07-29T07:56:19.904Z,1011.86
2022-07-29T07:57:19.914Z,1011.84
2022-07-29T07:58:19.905Z,1011.86
2022-07-29T07:59:19.836Z,1011.84
2022-07-29T08:00:19.910Z,1011.78
2022-07-29T08:01:19.975Z,1011.77
2022-07-29T08:02:19.911Z,1011.73
2022-07-29T08:03:19.764Z,1011.75
2022-07-29T08:04:24.944Z,1011.77
2022-07-29T08:05:20.757Z,1011.75
2022-07-29T08:06:19.831Z,1011.75
2022-07-29T08:07:19.766Z,1011.79
2022-07-29T08:08:19.739Z,1011.79
2022-07-29T08:09:28.837Z,1011.82
2022-07-29T08:10:20.763Z,1011.79
2022-07-29T08:11:19.710Z,1011.79
2022-07-29T08:12:19.686Z,1011.79
2022-07-29T08:13:19.730Z,1011.70
2022-07-29T08:14:19.695Z,1011.74
2022-07-29T08:15:19.714Z,1011.80
2022-07-29T08:16:19.637Z,1011.75
2022-07-29T08:17:19.710Z,1011.76
2022-07-29T08:18:19.567Z,1011.81
2022-07-29T08:19:19.552Z,1011.76
2022-07-29T08:20:19.603Z,1011.79
2022-07-29T08:21:19.560Z,1011.79
2022-07-29T08:22:19.537Z,1011.81
2022-07-29T08:23:19.514Z,1011.82
2022-07-29T08:24:19.504Z,1011.87
2022-07-29T08:25:19.601Z,1011.83
2022-07-29T08:26:19.782Z,1011.83
2022-07-29T08:27:41.919Z,1011.81
2022-07-29T08:28:20.558Z,1011.85
2022-07-29T08:29:20.152Z,1011.81
2022-07-29T08:30:19.493Z,1011.85
2022-07-29T08:31:19.460Z,1011.87
2022-07-29T08:32:43.416Z,1011.86
2022-07-29T08:33:20.473Z,1011.87
2022-07-29T08:34:19.479Z,1011.84
2022-07-29T08:35:20.383Z,1011.85
2022-07-29T08:36:19.338Z,1011.84
2022-07-29T08:37:19.563Z,1011.88
2022-07-29T08:38:21.287Z,1011.89
2022-07-29T08:39:19.324Z,1011.87
2022-07-29T08:40:19.394Z,1011.88
2022-07-29T08:41:19.259Z,1011.82
2022-07-29T08:42:19.291Z,1011.88
2022-07-29T08:43:19.282Z,1011.87
2022-07-29T08:44:27.488Z,1011.86
2022-07-29T08:45:20.271Z,1011.87
2022-07-29T08:46:19.308Z,1011.84
2022-07-29T08:47:19.342Z,1011.89
2022-07-29T08:48:19.183Z,1011.87
2022-07-29T08:49:19.197Z,1011.92
2022-07-29T08:50:19.414Z,1011.90
2022-07-29T08:51:19.893Z,1011.90
2022-07-29T08:52:19.128Z,1011.91
2022-07-29T08:53:19.155Z,1011.94
2022-07-29T08:54:19.119Z,1011.91
2022-07-29T08:55:23.465Z,1011.89
2022-07-29T08:56:22.778Z,1011.92
2022-07-29T08:57:20.054Z,1011.90
2022-07-29T08:58:23.106Z,1011.87
2022-07-29T08:59:20.202Z,1011.90
2022-07-29T09:00:19.247Z,1011.88
2022-07-29T09:01:19.583Z,1011.87
2022-07-29T09:02:18.988Z,1011.88
2022-07-29T09:03:25.774Z,1011.85
2022-07-29T09:04:20.003Z,1011.84
2022-07-29T09:05:18.987Z,1011.80
2022-07-29T09:06:18.982Z,1011.83
2022-07-29T09:07:18.931Z,1011.77
2022-07-29T09:08:18.932Z,1011.81
2022-07-29T09:09:18.901Z,1011.79
2022-07-29T09:10:19.860Z,1011.78
2022-07-29T09:11:19.143Z,1011.83
2022-07-29T09:12:28.728Z,1011.78
2022-07-29T09:13:19.878Z,1011.80
2022-07-29T09:14:18.834Z,1011.83
2022-07-29T09:15:18.884Z,1011.78
2022-07-29T09:16:31.866Z,1011.79
2022-07-29T09:17:21.815Z,1011.78
2022-07-29T09:18:19.767Z,1011.80
2022-07-29T09:19:19.768Z,1011.75
2022-07-29T09:20:18.937Z,1011.78
2022-07-29T09:21:18.814Z,1011.76
2022-07-29T09:22:18.755Z,1011.75
2022-07-29T09:23:24.196Z,1011.75
2022-07-29T09:24:19.749Z,1011.74
2022-07-29T09:25:18.769Z,1011.75
2022-07-29T09:26:18.839Z,1011.74
2022-07-29T09:27:18.685Z,1011.69
2022-07-29T09:28:18.687Z,1011.70
2022-07-29T09:29:18.680Z,1011.70
2022-07-29T09:30:31.299Z,1011.72
2022-07-29T09:31:19.695Z,1011.68
2022-07-29T09:32:18.740Z,1011.70
2022-07-29T09:33:18.609Z,1011.68
2022-07-29T09:34:18.610Z,1011.67
2022-07-29T09:35:18.660Z,1011.71
2022-07-29T09:36:18.603Z,1011.69
2022-07-29T09:37:18.629Z,1011.68
2022-07-29T09:38:18.534Z,1011.62
2022-07-29T09:39:18.527Z,1011.67
2022-07-29T09:40:18.565Z,1011.64
2022-07-29T09:41:19.442Z,1011.66
2022-07-29T09:42:19.953Z,1011.66
2022-07-29T09:43:18.477Z,1011.66
2022-07-29T09:44:18.495Z,1011.65
2022-07-29T09:45:18.486Z,1011.67
2022-07-29T09:46:18.499Z,1011.64
2022-07-29T09:47:18.467Z,1011.66
2022-07-29T09:48:18.432Z,1011.66
2022-07-29T09:49:18.597Z,1011.63
2022-07-29T09:50:18.379Z,1011.61
2022-07-29T09:51:20.774Z,1011.63
2022-07-29T09:52:18.433Z,1011.62
2022-07-29T09:53:18.395Z,1011.64
2022-07-29T09:54:18.857Z,1011.62
2022-07-29T09:55:19.976Z,1011.53
2022-07-29T09:56:18.745Z,1011.59
2022-07-29T09:57:19.352Z,1011.61
2022-07-29T09:58:21.013Z,1011.59
2022-07-29T09:59:18.303Z,1011.58
2022-07-29T10:00:18.308Z,1011.67
2022-07-29T10:01:18.377Z,1011.59
2022-07-29T10:02:23.571Z,1011.60
2022-07-29T10:03:19.411Z,1011.65
2022-07-29T10:04:18.355Z,1011.59
2022-07-29T10:05:18.186Z,1011.64
2022-07-29T10:06:18.175Z,1011.65
2022-07-29T10:07:18.634Z,1011.58
2022-07-29T10:08:18.386Z,1011.60
2022-07-29T10:09:18.188Z,1011.57
2022-07-29T10:10:18.200Z,1011.58
2022-07-29T10:11:18.161Z,1011.59
2022-07-29T10:12:18.368Z,1011.61
2022-07-29T10:13:20.126Z,1011.60
2022-07-29T10:14:18.091Z,1011.58
2022-07-29T10:15:18.084Z,1011.58
2022-07-29T10:16:18.159Z,1011.58
2022-07-29T10:17:18.087Z,1011.58
2022-07-29T10:18:18.042Z,1011.54
2022-07-29T10:19:18.103Z,1011.56
2022-07-29T10:20:18.231Z,1011.56
2022-07-29T10:21:35.083Z,1011.57
2022-07-29T10:22:43.235Z,1011.59
2022-07-29T10:23:19.063Z,1011.59
2022-07-29T10:24:17.963Z,1011.57
2022-07-29T10:25:17.992Z,1011.62
2022-07-29T10:26:17.910Z,1011.64
2022-07-29T10:27:17.918Z,1011.59
2022-07-29T10:28:17.883Z,1011.55
2022-07-29T10:29:18.929Z,1011.58
2022-07-29T10:30:17.864Z,1011.64
2022-07-29T10:31:18.000Z,1011.59
2022-07-29T10:32:18.827Z,1011.58
2022-07-29T10:33:17.856Z,1011.55
2022-07-29T10:34:17.903Z,1011.53
2022-07-29T10:35:17.948Z,1011.57
2022-07-29T10:36:18.598Z,1011.63
2022-07-29T10:37:18.690Z,1011.54
2022-07-29T10:38:17.805Z,1011.52
2022-07-29T10:39:17.851Z,1011.48
2022-07-29T10:40:18.000Z,1011.47
2022-07-29T10:41:19.406Z,1011.45
2022-07-29T10:42:19.964Z,1011.43
2022-07-29T10:43:17.702Z,1011.37
2022-07-29T10:44:19.476Z,1011.36
2022-07-29T10:45:18.815Z,1011.34
2022-07-29T10:46:17.934Z,1011.41
2022-07-29T10:47:17.683Z,1011.32
2022-07-29T10:48:19.240Z,1011.34
2022-07-29T10:49:18.107Z,1011.41
2022-07-29T10:50:18.083Z,1011.35
2022-07-29T10:52:19.588Z,1011.34
2022-07-29T10:53:18.856Z,1011.37
2022-07-29T10:54:17.898Z,1011.31
2022-07-29T10:55:17.608Z,1011.40
2022-07-29T10:56:17.947Z,1011.32
2022-07-29T10:57:17.556Z,1011.31
2022-07-29T10:58:18.094Z,1011.23
2022-07-29T10:59:17.508Z,1011.23
2022-07-29T11:00:17.478Z,1011.25
2022-07-29T11:01:18.421Z,1011.27
2022-07-29T11:02:46.462Z,1011.20
2022-07-29T11:03:18.502Z,1011.27
2022-07-29T11:04:17.499Z,1011.22
2022-07-29T11:05:17.926Z,1011.22
2022-07-29T11:06:26.783Z,1011.25
2022-07-29T11:07:18.505Z,1011.20
2022-07-29T11:08:20.368Z,1011.17
2022-07-29T11:09:20.364Z,1011.16
2022-07-29T11:10:18.427Z,1011.24
2022-07-29T11:11:17.563Z,1011.22
2022-07-29T11:12:17.344Z,1011.24
2022-07-29T11:13:18.293Z,1011.24
2022-07-29T11:14:17.359Z,1011.25
2022-07-29T11:15:18.104Z,1011.19
2022-07-29T11:16:20.110Z,1011.24
2022-07-29T11:17:18.414Z,1011.23
2022-07-29T11:18:18.718Z,1011.23
2022-07-29T11:19:26.206Z,1011.22
2022-07-29T11:20:18.265Z,1011.29
2022-07-29T11:21:18.048Z,1011.25
2022-07-29T11:22:18.185Z,1011.22
2022-07-29T11:23:17.406Z,1011.21
2022-07-29T11:25:18.168Z,1011.14
2022-07-29T11:26:18.956Z,1011.20
2022-07-29T11:27:20.114Z,1011.19
2022-07-29T11:28:23.176Z,1011.22
2022-07-29T11:29:18.128Z,1011.18
2022-07-29T11:30:17.460Z,1011.21
2022-07-29T11:31:17.361Z,1011.19
2022-07-29T11:32:22.876Z,1011.17
2022-07-29T11:33:18.975Z,1011.17
2022-07-29T11:34:18.073Z,1011.20
2022-07-29T11:35:19.241Z,1011.20
2022-07-29T11:36:17.646Z,1011.15
2022-07-29T11:37:17.780Z,1011.13
2022-07-29T11:38:17.013Z,1011.12
2022-07-29T11:39:17.845Z,1011.10
2022-07-29T11:40:17.286Z,1011.07
2022-07-29T11:41:16.995Z,1011.06
2022-07-29T11:42:17.071Z,1011.07
2022-07-29T11:43:17.937Z,1011.06
2022-07-29T11:44:18.175Z,1011.05
2022-07-29T11:45:43.764Z,1011.01
2022-07-29T11:46:17.990Z,1011.04
2022-07-29T11:47:18.043Z,1011.04
2022-07-29T11:48:28.888Z,1011.09
2022-07-29T11:49:17.936Z,1011.06
2022-07-29T11:50:16.861Z,1011.07
2022-07-29T11:51:17.749Z,1011.08
2022-07-29T11:52:16.861Z,1011.05
2022-07-29T11:53:18.035Z,1011.06
2022-07-29T11:54:16.819Z,1011.07
2022-07-29T11:55:16.799Z,1011.07
2022-07-29T11:56:17.126Z,1011.10
2022-07-29T11:57:16.793Z,1011.05
2022-07-29T11:58:16.882Z,1011.00
2022-07-29T11:59:16.798Z,1011.05
2022-07-29T12:00:18.708Z,1011.08
2022-07-29T12:01:17.777Z,1011.04
2022-07-29T12:02:37.058Z,1011.03
2022-07-29T12:03:17.994Z,1011.05
2022-07-29T12:04:17.065Z,1011.04
2022-07-29T12:05:22.260Z,1011.01
2022-07-29T12:06:18.527Z,1011.02
2022-07-29T12:07:16.660Z,1011.06